Tiempo atmosférico en la estación meteorológica de Aragüés Del Puerto, Huesca (1120 m.)



Fecha
DESCASC
Temp. máxima en grados centígrados (hora)
DESCASC
Temp. mínima en grados centígrados (hora)
DESCASC
Temp. media en grados centígrados
DESCASC
Racha de viento máxima en m/sg (hora)
DESCASC
Velocidad máxima media en intervalos de 10 minutos(hora)
DESCASC
Precipitaciones diarias en mm
DESCASC
Precipitaciones de 00:00 a 06:00 en mm
DESCASC
Precipitaciones de 06:00 a 12:00 en mm
DESCASC
Precipitaciones de 12:00 a 18:00 en mm
DESCASC
Precipitaciones de 18:00 a 24:00 en mm
DESCASC
18-01-2018 12.1 (15:10) -1.7 (06:40) 5.2 5.56 (15:40) 3.61 (14:00) 0 0 0 0 0
17-01-2018 9.5 (14:20) 0.2 (23:59) 4.9 -- (--) -- (--) 0.2 0.2 0 0 0
16-01-2018 12.5 (13:40) 1.6 (00:00) 7.1 -- (--) -- (--) 0 0 0 0 0
15-01-2018 4.1 (12:20) -2.2 (08:30) 0.9 5 (21:00) 2.5 (21:20) 0 0 0 0 0
14-01-2018 1.9 (15:40) -0.2 (00:00) 0.8 3.89 (07:20) 1.94 (08:10) 4 3.4 0.2 0.4 0
13-01-2018 7.5 (13:40) 0 (00:00) 3.8 -- (--) -- (--) 1 0 0 0 1
12-01-2018 8.8 (13:50) -2.6 (-00:0) 3.1 -- (--) -- (--) 0 0 0 0 0
11-01-2018 2.8 (13:30) -1.4 (-00:0) 0.7 -- (--) -- (--) 4 0 0 3.6 0.4
10-01-2018 4.3 (14:00) -0.6 (-00:0) 1.9 6.67 (22:50) 3.33 (13:00) 4.6 0.2 0 0 4.4
09-01-2018 6.9 (13:10) -3 (-00:0) 2 7.78 (10:10) 5.56 (10:10) 1.2 0 0 0 1.2
08-01-2018 8.9 (15:00) -2.1 (-00:0) 3.4 5.56 (12:40) 3.61 (03:50) 0 0 0 0 0
07-01-2018 5.8 (11:30) 0.9 (00:00) 3.4 15.28 (08:50) 6.39 (08:40) 20.8 19.4 0.6 0.8 0
06-01-2018 6.9 (12:50) 2.6 (00:00) 4.8 -- (--) -- (--) 23.8 10.8 8.8 3 1.2
05-01-2018 9.1 (00:00) 5.6 (00:00) 7.4 5.56 (22:20) 3.61 (18:00) 4.2 0 0 1 3.2
04-01-2018 13.4 (12:50) 8.4 (19:00) 10.9 11.39 (00:50) 4.17 (00:30) 0 0 0 0 0
03-01-2018 14.8 (14:40) 8.6 (00:00) 11.7 11.67 (20:20) 4.72 (05:00) 1.4 0.4 1 0 0
02-01-2018 9.5 (19:40) 3.4 (00:00) 6.5 12.78 (02:00) 5.83 (18:20) 7 0 3 3.6 0.4
01-01-2018 7.2 (20:50) 0.9 (00:00) 4 16.94 (20:40) 4.17 (22:10) 11 0 0 6.2 4.8
31-12-2017 9.3 (15:00) 2 (00:00) 5.7 9.44 (19:50) 4.72 (07:00) 6 0 0 0 6
30-12-2017 13.3 (15:00) 3.7 (00:00) 8.5 7.5 (14:00) 3.61 (22:40) 0 0 0 0 0
29-12-2017 9.7 (15:30) 1.8 (00:00) 5.7 11.11 (13:50) 5 (02:10) 9 0 8.8 0.2 0
28-12-2017 4.7 (21:40) -1 (-00:0) 1.8 10 (21:30) 3.89 (18:40) 15.4 3.8 2.6 7.2 1.8
27-12-2017 3.6 (13:10) -0.8 (-00:0) 1.4 -- (--) -- (--) 25.8 8.8 6.4 6 4.6
26-12-2017 5.6 (00:00) 0.3 (00:00) 2.9 5.83 (15:00) 3.06 (01:20) -- 8.2 -- 0 5.8
25-12-2017 12.9 (13:40) 3 (00:00) 7.9 7.22 (13:10) 5 (13:10) 0 0 0 0 0
24-12-2017 14.4 (14:20) 2 (00:00) 8.2 6.39 (06:40) 2.78 (07:30) 0 0 0 0 0

Gráficas

Temp. máximas Temp. mínimas Temp. medias Precipitaciones Rachas de viento máximas Velocidades máximas media en intervalos de 10 minutos

Datos horarios

Fecha y hora oficial Temperatura (ºC) Velocidad del viento (km/h) Dirección del viento Racha (km/h) Dirección de racha Precipitación (mm) Presión (hPa) Tendencia (hPa) Humedad (%)
2018-01-22 23:00:00 7.4 3 Noroeste 10 Sudeste 0 908.3 0.9 66
2018-01-22 22:00:00 8.6 6 Sur 29 Noroeste 0 908 0.8 65
2018-01-22 21:00:00 9.2 4 Este 24 Oeste 0 907.8 0.9 69
2018-01-22 20:00:00 10.1 11 Oeste 33 Noroeste 0 907.4 0.8 67
2018-01-22 19:00:00 11 13 Noroeste 33 Oeste 0 907.2 0.7 59
2018-01-22 18:00:00 11.9 12 Oeste 20 Oeste 0 906.9 0.3 55
2018-01-22 17:00:00 14.1 5 Nordeste 17 Nordeste 0 906.6 -0.6 42
2018-01-22 16:00:00 14.4 11 Sur 21 Sur 0 906.5 -1.3 48
2018-01-22 15:00:00 14.2 13 Sudoeste 26 Sudoeste 0 906.6 -1.6 47
2018-01-22 14:00:00 13.8 8 Sudoeste 22 Sudoeste 0 907.2 -1 47
2018-01-22 13:00:00 13.1 9 Sur 17 Sur 0 907.8 -0.1 54
2018-01-22 12:00:00 11.4 6 Sudeste 10 Sur 0 908.2 0.7 60
2018-01-22 11:00:00 9.1 3 Nordeste 11 Nordeste 0 908.2 0.8 70
2018-01-22 10:00:00 6.9 5 Nordeste 13 Nordeste 0 907.9 0.6 78
2018-01-22 09:00:00 4.2 3 Norte 15 Norte 0 907.5 0.1 88
2018-01-22 08:00:00 4.3 6 Norte 13 Nordeste 0 907.4 -0.1 89
2018-01-22 07:00:00 4.9 8 Norte 20 Norte 0 907.3 -0.4 87
2018-01-22 06:00:00 4.8 5 Norte 14 Norte 0 907.4 -0.3 87
2018-01-22 05:00:00 5.1 5 Norte 15 Norte 0 907.5 -0.2 86
2018-01-22 04:00:00 5.4 4 Norte 13 Norte 0 907.7 -0.4 85
2018-01-22 03:00:00 5.1 5 Norte 13 Nordeste 0 907.7 -0.1 86
2018-01-22 02:00:00 5.6 4 Noroeste 14 Nordeste 0 907.7 0 85
2018-01-22 01:00:00 6 3 Sudoeste 15 Nordeste 0 908.1 0.2 81
2018-01-22 00:00:00 6.2 3 Noroeste 11 Norte 0 907.8 -0.5 81
2018-01-21 23:00:00 7.1 3 Este 11 Nordeste 0 907.7 -0.6 78
2018-01-21 22:00:00 7.3 4 Norte 10 Noroeste 0 907.9 -0.1 77
2018-01-21 21:00:00 7.4 5 Norte 10 Este 0 908.3 0.7 79
2018-01-21 20:00:00 8 3 Sudoeste 11 Norte 0 908.3 0.7 77
2018-01-21 19:00:00 8.9 4 Este 31 Noroeste 0 908 0.8 75
2018-01-21 18:00:00 11.2 17 Noroeste -- -- 0 907.6 1 63
2018-01-21 17:00:00 11.5 -- -- -- -- 0 907.6 0.9 64
2018-01-21 16:00:00 12.3 7 Noroeste 28 Oeste 0 907.2 -0.2 60
2018-01-21 15:00:00 12.6 9 Noroeste 35 Noroeste 0.2 906.6 -0.8 59
2018-01-21 14:00:00 13.7 8 Noroeste 41 Oeste 0 906.7 0.2 57
2018-01-21 13:00:00 12 -- -- -- -- 0 907.4 1.2 74
2018-01-21 12:00:00 10.7 10 Oeste 32 Sudoeste 0 907.4 1.7 79
2018-01-21 11:00:00 9.9 12 Oeste 31 Oeste 0 906.5 1.4 83
2018-01-21 10:00:00 8.6 14 Oeste 31 Oeste 0 906.2 1.7 86
2018-01-21 09:00:00 8.3 13 Oeste 35 Oeste 0.4 905.7 2 87
2018-01-21 08:00:00 8.4 14 Oeste 39 Noroeste 0.2 905.1 1.3 86
2018-01-21 07:00:00 8.5 14 Oeste 46 Sudoeste 0.2 904.5 0.7 85
2018-01-21 06:00:00 9.1 15 Oeste 40 Noroeste 0.2 903.7 -0.2 78
2018-01-21 05:00:00 9.1 16 Noroeste 44 Oeste 0.4 903.8 -0.1 78
2018-01-21 04:00:00 8.6 14 Noroeste 38 Noroeste 1.2 903.8 0 81
2018-01-21 03:00:00 8.2 16 Oeste 36 Oeste 0.4 903.9 -0.1 85
2018-01-21 02:00:00 8 13 Noroeste 33 Noroeste 0.8 903.9 0.1 86
2018-01-21 01:00:00 8.5 16 Noroeste 41 Noroeste 1 903.8 0 82
2018-01-21 00:00:00 9.1 15 Noroeste -- -- 0.4 904 0.5 77
2018-01-20 23:00:00 9.4 20 Noroeste 39 Noroeste 0.4 903.8 0.7 75
2018-01-20 22:00:00 9.2 16 Noroeste 39 Oeste 0.8 903.8 0.8 74
2018-01-20 21:00:00 9 16 Noroeste 37 Noroeste 0.4 903.5 0.7 78
2018-01-20 20:00:00 7.9 12 Noroeste 23 Norte 0.6 903.1 0.5 88
2018-01-20 19:00:00 7.2 10 Noroeste 22 Noroeste 1.4 903 0.7 91
2018-01-20 18:00:00 7.1 10 Noroeste 26 Noroeste 0.4 902.8 0.5 90
2018-01-20 17:00:00 6.9 11 Oeste 28 Noroeste 0.4 902.6 -0.2 89
2018-01-20 16:00:00 6.4 13 Oeste 30 Oeste 0.6 902.3 -1.2 89
2018-01-20 15:00:00 6.3 14 Oeste 28 Oeste 0.2 902.3 -1.8 87
2018-01-20 14:00:00 7.7 11 Oeste 28 Oeste 0.2 902.8 -1.4 72
2018-01-20 13:00:00 7.7 9 Noroeste 27 Noroeste 0.2 903.5 -0.4 67
2018-01-20 12:00:00 10.4 12 Noroeste 31 Noroeste 0 904.1 0.5 38
2018-01-20 11:00:00 8.8 7 Oeste 21 Norte 0 904.2 0.6 40
2018-01-20 10:00:00 6.5 9 Noroeste 22 Oeste 0 903.9 0.1 56
2018-01-20 09:00:00 5.4 11 Oeste 26 Noroeste 0 903.6 -0.1 63
2018-01-20 08:00:00 4.3 12 Noroeste 24 Noroeste 0 903.6 -0.1 63
2018-01-20 07:00:00 1.3 6 Nordeste 13 Nordeste 0 903.8 0.1 82
2018-01-20 06:00:00 0.6 5 Noroeste 11 Nordeste 0 903.7 -0.3 83
2018-01-20 05:00:00 1.2 4 Nordeste 17 Norte 0 903.7 -0.1 83
2018-01-20 04:00:00 1.5 3 Noroeste 12 Norte 0 903.7 -0.1 81
2018-01-20 03:00:00 1.9 7 Norte 11 Norte 0 904 0.1 79
2018-01-20 02:00:00 1.8 4 Norte 11 Oeste 0 903.8 0.2 80
2018-01-20 01:00:00 2 6 Nordeste 10 Norte 0 903.8 0.8 79
2018-01-20 00:00:00 2.6 6 Nordeste 17 Oeste 0 903.9 0.9 77
2018-01-19 23:00:00 3.9 4 Nordeste 27 Norte 0 903.6 0.9 71
2018-01-19 22:00:00 5.4 12 Noroeste 40 Noroeste 0 903 0.8 63
2018-01-19 21:00:00 5.8 -- -- -- -- 0 903 1.1 59
2018-01-19 20:00:00 5.9 13 Noroeste 36 Noroeste 0 902.7 1.2 59
2018-01-19 19:00:00 4.3 18 Oeste 36 Oeste 0 902.2 0.7 75
2018-01-19 18:00:00 6.4 15 Noroeste -- -- 0 901.9 0.7 60
2018-01-19 17:00:00 7.3 12 Oeste 31 Noroeste 0 901.5 0.2 64
2018-01-19 16:00:00 9.7 11 Noroeste 45 Norte 0 901.5 0.1 49
2018-01-19 15:00:00 10.5 15 Noroeste 65 Noroeste 0 901.2 -0.5 44
2018-01-19 14:00:00 11.1 9 Nordeste 41 Oeste 0 901.3 -0.4 44
2018-01-19 13:00:00 11.2 13 Oeste 36 Norte 0 901.4 -0.2 50
2018-01-19 12:00:00 11.8 5 Oeste 30 Sudoeste 0 901.7 0.4 40
2018-01-19 11:00:00 9.8 6 Sur 13 Sudeste 0 901.7 0.2 56
2018-01-19 10:00:00 6.7 5 Este 14 Nordeste 0 901.6 0.3 69
2018-01-19 09:00:00 2.8 4 Noroeste 16 Nordeste 0 901.3 0 85
2018-01-19 08:00:00 2.3 4 Nordeste 12 Nordeste 0 901.5 0.1 84
2018-01-19 07:00:00 2.4 6 Noroeste 13 Nordeste 0 901.3 -0.4 88
2018-01-19 06:00:00 2.2 4 Nordeste 12 Nordeste 0 901.3 -0.7 89
2018-01-19 05:00:00 2.5 5 Norte 16 Nordeste 0 901.4 -1 86
2018-01-19 04:00:00 2.7 5 Norte 13 Norte 0 901.7 -0.7 85
2018-01-19 03:00:00 3.7 7 Norte 14 Norte 0 902 -0.5 80
2018-01-19 02:00:00 3.2 6 Norte 12 Nordeste 0 902.4 -0.2 81
2018-01-19 01:00:00 4.1 8 Norte 12 Nordeste 0 902.4 -0.3 76
2018-01-19 00:00:00 4.1 7 Norte 18 Norte 0 902.5 -0.1 76
2018-01-18 23:00:00 4.8 6 Norte 14 Nordeste 0 902.6 -0.1 74
2018-01-18 22:00:00 5.5 6 Nordeste 17 Noroeste 0 902.7 0 70
2018-01-18 21:00:00 5.8 6 Norte 13 Norte 0 902.6 -0.3 71
2018-01-18 20:00:00 6.7 6 Norte 12 Nordeste 0 902.7 -0.2 70
2018-01-18 19:00:00 5.9 4 Norte 14 Nordeste 0 902.7 -0.3 74
2018-01-18 18:00:00 7.2 2 Norte 10 Oeste 0 902.9 -0.3 68
2018-01-18 17:00:00 10.8 3 Sur 11 Sur 0 902.9 -0.9 53
2018-01-18 16:00:00 11.4 9 Sur 20 Sudoeste 0 903 -1.5 50
2018-01-18 15:00:00 12 5 Sur 16 Sur 0 903.2 -2 47
2018-01-18 14:00:00 11.4 13 Sur 19 Sur 0 903.8 -1.9 47
2018-01-18 13:00:00 10 12 Sudeste 16 Sudeste 0 904.5 -0.9 48
2018-01-18 12:00:00 8.5 5 Sudeste 9 Sur 0 905.2 -0.2 50
2018-01-18 11:00:00 5.4 3 Sur 12 Nordeste 0 905.7 0.6 57
2018-01-18 10:00:00 3.4 4 Nordeste 10 Nordeste 0 905.4 0.2 67
2018-01-18 09:00:00 -0.6 3 Noroeste 6 Norte 0 905.4 0.2 78
2018-01-18 08:00:00 -0.8 5 Nordeste 11 Norte 0 905.1 -0.9 78
2018-01-18 07:00:00 -0.7 4 Norte 7 Nordeste 0 905.2 -1 77
2018-01-18 06:00:00 -0.8 0 Calma 5 Norte 0 905.2 -1.8 80
2018-01-18 05:00:00 -0.8 3 Oeste 7 Nordeste 0 906 -1.1 83
2018-01-18 04:00:00 -0.6 3 Nordeste 15 Norte 0 906.2 -1.1 81
2018-01-18 03:00:00 -0.1 10 Norte 17 Norte 0 907 0.1 77
2018-01-18 02:00:00 0 6 Norte 14 Norte 0 907.1 0 80
2018-01-18 01:00:00 0.5 6 Norte 14 Norte 0 907.3 0.3 78
2018-01-18 00:00:00 0.2 7 Norte 17 Nordeste 0 906.9 0.2 83
2018-01-17 23:00:00 0.6 5 Norte 15 Norte 0 907.1 0.7 81
2018-01-17 22:00:00 1.6 8 Norte 11 Nordeste 0 907 1.1 77
2018-01-17 21:00:00 1.3 3 Norte 15 Noroeste 0 906.7 1.2 77
2018-01-17 20:00:00 2.7 7 Noroeste 17 Oeste 0 906.4 2.1 76
2018-01-17 19:00:00 3.3 6 Noroeste 17 Noroeste 0 905.9 2.5 69
2018-01-17 18:00:00 5 5 Noroeste 22 Noroeste 0 905.5 2.3 53
2018-01-17 17:00:00 7.6 6 Sudoeste 49 Oeste 0 904.3 0.8 42
2018-01-17 16:00:00 8.8 9 Oeste 34 Norte 0 903.4 -0.6 41
2018-01-17 15:00:00 9.5 6 Norte 35 Nordeste 0 903.2 -1.1 37
2018-01-17 14:00:00 9.1 13 Norte 53 Norte 0 903.5 -0.8 36
2018-01-17 13:00:00 8.4 10 Noroeste -- -- 0 904 0.1 32
2018-01-17 12:00:00 6.3 -- -- -- -- 0 904.3 1.1 56
2018-01-17 11:00:00 7.7 14 Noroeste 46 Norte 0 904.3 1.5 51
2018-01-17 10:00:00 7.3 -- -- -- -- 0 903.9 0.8 47
2018-01-17 09:00:00 6.5 18 Noroeste 44 Noroeste 0 903.2 0.7 53
2018-01-17 08:00:00 6.5 12 Nordeste 51 Oeste 0 902.8 0.4 53
2018-01-17 07:00:00 6.4 18 Oeste -- -- 0 903.1 0.1 61
2018-01-17 06:00:00 7.6 -- -- -- -- 0 902.5 -0.2 57
2018-01-17 05:00:00 6.6 9 Oeste 32 Noroeste 0 902.4 -0.3 71
2018-01-17 04:00:00 7.6 10 Oeste 26 Norte 0 903 -0.4 71
2018-01-17 03:00:00 8.3 8 Noroeste 39 Noroeste 0 902.7 -1.1 70
2018-01-17 02:00:00 8.1 11 Noroeste 33 Noroeste 0 902.7 -1 75
2018-01-17 01:00:00 7.6 5 Oeste 18 Noroeste 0.2 903.4 -0.6 86
2018-01-17 00:00:00 7.7 5 Norte 17 Sudoeste 0 903.8 -0.4 85
2018-01-16 23:00:00 8.6 8 Oeste 21 Oeste 0 903.7 -0.3 77
2018-01-16 22:00:00 9.8 7 Noroeste 20 Oeste 0 904 0.2 66
2018-01-16 21:00:00 10.3 8 Noroeste 35 Noroeste 0 904.2 0.5 62
2018-01-16 20:00:00 9.9 7 Noroeste 39 Norte 0 904 0.3 67
2018-01-16 19:00:00 9.4 9 Oeste 20 Sudoeste 0 903.8 0.2 70
2018-01-16 18:00:00 9.2 8 Oeste 26 Oeste 0 903.7 0.2 75
2018-01-16 17:00:00 10 10 Oeste 27 Oeste 0 903.7 -0.3 70
2018-01-16 16:00:00 11.4 12 Noroeste 37 Oeste 0 903.6 -1 61
2018-01-16 15:00:00 11.6 10 Oeste 30 Sudoeste 0 903.5 -1.5 64
2018-01-16 14:00:00 11.7 15 Oeste 33 Noroeste 0 904 -0.5 64
2018-01-16 13:00:00 11.9 9 Oeste 32 Oeste 0 904.6 0.3 62
2018-01-16 12:00:00 11.5 13 Oeste 33 Oeste 0 905 0.9 63
2018-01-16 11:00:00 11.3 13 Oeste 35 Oeste 0 904.5 0.5 65
2018-01-16 10:00:00 9.2 15 Oeste 31 Noroeste 0 904.3 0.8 70
2018-01-16 09:00:00 8.7 16 Noroeste 37 Noroeste 0 904.1 0.7 71
2018-01-16 08:00:00 7.2 14 Oeste 35 Oeste 0 904 0.2 79
2018-01-16 07:00:00 6.9 14 Oeste 33 Noroeste 0 903.5 -0.6 79
2018-01-16 06:00:00 7.6 17 Noroeste 40 Noroeste 0 903.4 -0.8 74
2018-01-16 05:00:00 5.3 12 Oeste 27 Oeste 0 903.8 -0.8 85
2018-01-16 04:00:00 4.3 18 Oeste -- -- 0 904.1 -1.1 89
2018-01-16 03:00:00 4.2 16 Oeste -- -- 0 904.2 -1.4 90
2018-01-16 02:00:00 2 4 Norte 15 Norte 0 904.6 -0.7 93
2018-01-16 01:00:00 1.7 8 Norte 13 Norte 0 905.2 -0.1 94
2018-01-16 00:00:00 1.6 3 Norte 8 Nordeste 0 905.6 0.2 93
2018-01-15 23:00:00 1.8 3 Nordeste 15 Noroeste 0 905.3 0.5 90
2018-01-15 22:00:00 2.3 5 Noroeste 17 Noroeste 0 905.3 0.5 82
2018-01-15 21:00:00 3 6 Noroeste 18 Oeste 0 905.4 0.9 74
2018-01-15 20:00:00 2.5 6 Noroeste 13 Norte 0 904.8 0.8 84
2018-01-15 19:00:00 2.4 3 Norte 10 Norte 0 904.8 0.7 90
2018-01-15 18:00:00 2.7 0 Calma 6 Sur 0 904.5 -0.1 89
2018-01-15 17:00:00 3 5 Sudoeste 11 Sudoeste 0 904 -0.9 88
2018-01-15 16:00:00 3 4 Nordeste 13 Sudoeste 0 904.1 -1.2 87
2018-01-15 15:00:00 3.1 5 Sur 10 Sudoeste 0 904.6 -1 86
2018-01-15 14:00:00 3.1 3 Este 11 Sudoeste 0 904.9 -0.6 84
2018-01-15 13:00:00 3.1 6 Sur 12 Sudeste 0 905.3 0.2 85
2018-01-15 12:00:00 2.5 5 Este 10 Este 0 905.6 1.3 85
2018-01-15 11:00:00 1.6 4 Sur 8 Sur 0 905.5 1.8 93
2018-01-15 10:00:00 -1.2 2 Este 7 Oeste 0 905.1 2.1 96
2018-01-15 09:00:00 -1.9 0 Calma 4 Este 0 904.3 1.8 96
2018-01-15 08:00:00 -1.8 3 Noroeste 8 Nordeste 0 903.7 1.5 96
2018-01-15 07:00:00 -2 3 Norte 8 Norte 0 903 0.8 96
2018-01-15 06:00:00 -1.2 3 Noroeste 7 Norte 0 902.5 0.6 96
2018-01-15 05:00:00 -0.9 4 Oeste 10 Nordeste 0 902.2 0.1 96
2018-01-15 04:00:00 -0.4 4 Norte 9 Norte 0 902.2 0.1 95
2018-01-15 03:00:00 -0.4 3 Nordeste 10 Nordeste 0 901.9 0 94
2018-01-15 02:00:00 0.1 6 Norte 9 Norte 0 902.1 0.6 94
2018-01-15 01:00:00 0.4 3 Norte 7 Norte 0 902.1 1.2 93
2018-01-15 00:00:00 0.6 2 Nordeste 9 Nordeste 0 901.9 1.4 93
2018-01-14 23:00:00 0.6 2 Nordeste 8 Noroeste 0 901.5 1.7 94
2018-01-14 22:00:00 0.7 2 Norte 6 Oeste 0 900.9 1.9 93
2018-01-14 21:00:00 0.8 4 Oeste 13 Oeste 0 900.5 2 93
2018-01-14 20:00:00 1 3 Oeste 8 Oeste 0 899.8 1.8 94
2018-01-14 19:00:00 1.1 4 Noroeste 8 Norte 0 899 1.5 93
2018-01-14 18:00:00 1.1 5 Oeste 10 Oeste 0 898.5 1.2 92
2018-01-14 17:00:00 1.4 6 Oeste 12 Oeste 0.2 898 0.8 91
2018-01-14 16:00:00 1.8 2 Oeste 11 Sudoeste 0.2 897.5 0 91
2018-01-14 15:00:00 1.6 0 Calma 5 Sudeste 0 897.3 -0.4 92
2018-01-14 14:00:00 1.4 4 Sudeste 9 Sudoeste 0 897.2 -0.1 92
2018-01-14 13:00:00 0.9 3 Sudeste 10 Oeste 0 897.5 0.9 93
2018-01-14 12:00:00 1 3 Sudeste 7 Sudeste 0 897.7 1.5 92
2018-01-14 11:00:00 0.8 3 Sur 10 Sudoeste 0.2 897.3 1.4 92
2018-01-14 10:00:00 0.4 3 Oeste 13 Oeste 0 896.6 0.9 93
2018-01-14 09:00:00 0 2 Sudoeste 11 Oeste 0 896.2 0.5 94
2018-01-14 08:00:00 -0.1 6 Oeste 14 Sur 0 895.9 0.3 95
2018-01-14 07:00:00 -0.1 3 Sur 7 Sudoeste 0 895.7 0.1 95
2018-01-14 06:00:00 -0.1 2 Sur 8 Oeste 0.2 895.7 0.1 95
2018-01-14 05:00:00 0 2 Sur 5 Sudoeste 0.2 895.6 -0.1 95
2018-01-14 04:00:00 0 2 Sur 5 Sudoeste 0.6 895.6 -0.5 94
2018-01-14 03:00:00 0.1 0 Calma 3 Sur 0.6 895.6 -0.9 94
2018-01-14 02:00:00 0.2 2 Sur 4 Sudoeste 1 895.7 -1.1 93
2018-01-14 01:00:00 0.6 0 Calma 4 Norte 0.8 896.1 -0.8 92
2018-01-14 00:00:00 1 3 Oeste 10 Noroeste 0.6 896.5 -0.5 90
2018-01-13 23:00:00 0.9 0 Calma 6 Norte 0.4 896.8 -0.1 89
2018-01-13 22:00:00 1.9 4 Sur -- -- 0 896.9 0.1 82
2018-01-13 21:00:00 3.8 -- -- -- -- 0 897 0.2 57
2018-01-13 20:00:00 3.4 4 Sur 10 Sudeste 0 896.9 0.1 54
2018-01-13 19:00:00 3.9 4 Este -- -- 0 896.8 0 50
2018-01-13 18:00:00 4.5 -- -- -- -- 0 896.8 -0.1 46
2018-01-13 17:00:00 5.5 -- -- -- -- 0 896.8 -0.8 41
2018-01-13 16:00:00 6.2 -- -- -- -- 0 896.8 -1.7 38
2018-01-13 15:00:00 6.3 11 Sur -- -- 0 896.9 -2.6 35
2018-01-13 14:00:00 6.9 -- -- -- -- 0 897.6 -2.3 36
2018-01-13 13:00:00 5.8 -- -- -- -- 0 898.5 -1.2 36
2018-01-13 12:00:00 5.9 5 Este 12 Sudeste 0 899.5 -0.2 37
2018-01-13 11:00:00 5.3 4 Sudeste 10 Norte 0 899.9 0.2 41
2018-01-13 10:00:00 2.9 11 Nordeste 21 Nordeste 0 899.7 0 48
2018-01-13 09:00:00 2.1 13 Nordeste 23 Norte 0 899.7 -0.3 52
2018-01-13 08:00:00 1.4 6 Noroeste 22 Nordeste 0 899.7 -0.9 55
2018-01-13 07:00:00 1.4 16 Norte 21 Norte 0 899.7 -1.8 53
2018-01-13 06:00:00 1.2 9 Norte 23 Norte 0 900 -1.8 56
2018-01-13 05:00:00 1.4 12 Nordeste 25 Nordeste 0 900.6 -1.7 59
2018-01-13 04:00:00 1.3 16 Nordeste 27 Nordeste 0 901.5 -0.8 59
2018-01-13 03:00:00 0.8 16 Norte 24 Nordeste 0 901.8 -1.3 61
2018-01-13 02:00:00 0.3 5 Norte 24 Nordeste 0 902.3 -0.8 66
2018-01-13 01:00:00 0.9 16 Nordeste 24 Norte 0 902.3 -1 65
2018-01-13 00:00:00 1.2 8 Norte 19 Norte 0 903.1 -0.5 68
2018-01-12 23:00:00 1.2 3 Noroeste 21 Nordeste 0 903.1 -0.1 70
2018-01-12 22:00:00 1 11 Nordeste 19 Nordeste 0 903.3 0.6 70
2018-01-12 21:00:00 1.1 13 Norte 20 Norte 0 903.6 1.5 70
2018-01-12 20:00:00 0.7 15 Nordeste 22 Nordeste 0 903.2 1.2 73
2018-01-12 19:00:00 1.2 14 Nordeste 22 Nordeste 0 902.7 0.6 71
2018-01-12 18:00:00 2.6 5 Nordeste 13 Oeste 0 902.1 0.2 67
2018-01-12 17:00:00 5.6 8 Oeste 18 Norte 0 902 -0.3 54
2018-01-12 16:00:00 6.3 15 Nordeste 30 Norte 0 902.1 -0.5 46
2018-01-12 15:00:00 6.9 14 Nordeste 30 Nordeste 0 901.9 -1.3 44
2018-01-12 14:00:00 7.2 11 Nordeste -- -- 0 902.3 -1.1 49
2018-01-12 13:00:00 7.6 -- -- -- -- 0 902.6 -0.2 60
2018-01-12 12:00:00 6.3 -- -- -- -- 0 903.2 0.8 60
2018-01-12 11:00:00 3.5 4 Oeste 11 Nordeste 0 903.4 0.7 83
2018-01-12 10:00:00 1.7 3 Sudeste 14 Nordeste 0 902.8 -0.3 81
2018-01-12 09:00:00 -1.3 3 Noroeste 10 Nordeste 0 902.4 -0.6 85
2018-01-12 08:00:00 -1.5 6 Oeste -- -- 0 902.7 -0.2 85
2018-01-12 07:00:00 -0.1 5 Norte 26 Norte 0 903.1 0.3 76
2018-01-12 06:00:00 1.5 -- -- -- -- 0 903 0.5 63
2018-01-12 05:00:00 -1.9 6 Norte 16 Nordeste 0 902.9 0.8 88
2018-01-12 04:00:00 -2.5 5 Nordeste 16 Nordeste 0 902.8 0.7 91
2018-01-12 03:00:00 -2.2 6 Noroeste 11 Norte 0 902.5 0.5 89
2018-01-12 02:00:00 -1.5 4 Sudeste 16 Nordeste 0 902.1 0.6 90
2018-01-12 01:00:00 -1.1 7 Norte 12 Norte 0 902.1 0.8 90
2018-01-12 00:00:00 -1 5 Oeste 15 Oeste 0 902 1 88
2018-01-11 23:00:00 -1.2 8 Oeste 14 Nordeste 0 901.5 0.8 94
2018-01-11 22:00:00 -1 5 Sur 13 Oeste 0 901.3 1.2 94
2018-01-11 21:00:00 -0.8 0 Calma 7 Sur 0 901 1.1 94
2018-01-11 20:00:00 -0.2 4 Sur 9 Sudeste 0 900.7 1.1 93
2018-01-11 19:00:00 0.2 4 Nordeste 15 Noroeste 0.4 900.1 1.1 93
2018-01-11 18:00:00 0.3 6 Noroeste 19 Noroeste 1.2 899.9 1.6 94
2018-01-11 17:00:00 0.5 9 Oeste 22 Oeste 1.6 899.6 1.3 92
2018-01-11 16:00:00 1.4 8 Oeste 26 Sudoeste 0.4 899 0.5 91
2018-01-11 15:00:00 2 8 Oeste 31 Sudoeste 0.2 898.3 -0.2 89
2018-01-11 14:00:00 2.3 9 Oeste 25 Sudoeste 0 898.3 -0.3 88
2018-01-11 13:00:00 1.4 9 Oeste 29 Sudoeste 0.2 898.5 0.5 89
2018-01-11 12:00:00 1.9 7 Sudoeste -- -- 0 898.5 1 86
2018-01-11 11:00:00 1.4 8 Oeste 26 Sudoeste 0 898.6 1.3 86
2018-01-11 10:00:00 0.3 9 Oeste 31 Noroeste 0 898 0.9 90
2018-01-11 09:00:00 -0.3 8 Oeste 15 Oeste 0 897.5 0.8 91
2018-01-11 08:00:00 -0.4 5 Oeste 11 Noroeste 0 897.3 0.5 91
2018-01-11 07:00:00 -1.1 3 Nordeste 9 Oeste 0 897.1 -0.1 90
2018-01-11 06:00:00 -0.4 5 Noroeste 13 Norte 0 896.7 -0.7 86
2018-01-11 05:00:00 -0.3 5 Oeste 13 Oeste 0 896.8 -0.3 81
2018-01-11 04:00:00 0.3 9 Noroeste 17 Noroeste 0 897.2 0 76
2018-01-11 03:00:00 1 8 Oeste 18 Oeste 0 897.4 0.2 80
2018-01-11 02:00:00 0.8 8 Oeste 30 Noroeste 0 897.1 0.2 84
2018-01-11 01:00:00 0.9 11 Noroeste -- -- 0 897.2 0.8 86
2018-01-11 00:00:00 1.5 6 Oeste 17 Noroeste 0 897.2 1.1 80
2018-01-10 23:00:00 1 4 Noroeste -- -- 0.2 896.9 0.6 89
2018-01-10 22:00:00 0.7 4 Oeste -- -- 1.2 896.4 0.5 93
2018-01-10 21:00:00 0.7 5 Norte 9 Noroeste 1.6 896.1 0 93
2018-01-10 20:00:00 2 3 Norte 8 Norte 0.8 896.3 0 91
2018-01-10 19:00:00 2.6 4 Norte 9 Este 0.6 895.9 -0.7 91
2018-01-10 18:00:00 3.4 4 Nordeste 8 Nordeste 0 896.1 -0.2 91
2018-01-10 17:00:00 4 2 Sudoeste 7 Sudoeste 0 896.3 0.4 87
2018-01-10 16:00:00 4.1 4 Sur 12 Sur 0 896.6 -0.5 82
2018-01-10 15:00:00 4 4 Este 12 Sur 0 896.3 -1.2 82
2018-01-10 14:00:00 4.3 7 Sudeste 18 Sudoeste 0 895.9 -1.6 83
2018-01-10 13:00:00 3.4 12 Sudoeste 22 Sudoeste 0 897.1 -0.6 84
2018-01-10 12:00:00 2.7 3 Sur 11 Norte 0 897.5 0.1 91
2018-01-10 11:00:00 1.4 9 Nordeste 15 Nordeste 0 897.5 0.5 91
2018-01-10 10:00:00 0.9 4 Noroeste 8 Norte 0 897.7 1 92
2018-01-10 09:00:00 -0.1 0 Calma 9 Nordeste 0 897.4 0.4 93
2018-01-10 08:00:00 0.2 8 Norte 14 Nordeste 0 897 -0.3 92
2018-01-10 07:00:00 0 3 Noroeste 7 Norte 0 896.7 -0.5 94
2018-01-10 06:00:00 0.2 3 Sur 9 Oeste 0 897 -0.3 93
2018-01-10 05:00:00 -0.4 3 Nordeste 6 Norte 0 897.3 -0.2 95
2018-01-10 04:00:00 -0.3 4 Noroeste 8 Norte 0 897.2 -1 94
2018-01-10 03:00:00 0.1 2 Norte 7 Oeste 0.2 897.3 -1.1 95
2018-01-10 02:00:00 0.1 0 Calma 5 Noroeste 0 897.5 -0.7 94
2018-01-10 01:00:00 0 3 Norte 5 Sudoeste 0 898.2 0 94
2018-01-10 00:00:00 0.1 0 Calma 5 Nordeste 0 898.4 0.1 94
2018-01-09 23:00:00 0 2 Norte 7 Oeste 0.2 898.2 -0.1 93
2018-01-09 22:00:00 -0.1 2 Sur 6 Sur 0.4 898.2 0.4 93
2018-01-09 21:00:00 0 4 Sur 9 Nordeste 0.4 898.3 0.7 92
2018-01-09 20:00:00 0.6 2 Oeste 22 Este 0.2 898.3 1.4 89
2018-01-09 19:00:00 2.8 11 Nordeste 16 Nordeste 0 897.8 1 65
2018-01-09 18:00:00 3.3 6 Sur 17 Sur 0 897.6 1 64
2018-01-09 17:00:00 4.5 10 Sur 22 Sudeste 0 896.9 0.4 58
2018-01-09 16:00:00 5.9 10 Sur 18 Sur 0 896.8 -0.1 46
2018-01-09 15:00:00 5.8 12 Sur 25 Sur 0 896.6 -0.6 39
2018-01-09 14:00:00 6.8 14 Sur 23 Sur 0 896.5 -0.6 33
2018-01-09 13:00:00 6.6 12 Sur 17 Sur 0 896.9 -0.3 33
2018-01-09 12:00:00 5.4 8 Sur 16 Nordeste 0 897.2 0.8 36
2018-01-09 11:00:00 3.5 12 Norte 28 Norte 0 897.1 1.2 41
2018-01-09 10:00:00 1.1 15 Nordeste 23 Nordeste 0 897.2 1.4 50
2018-01-09 09:00:00 -1.7 7 Norte 15 Norte 0 896.4 0.9 59
2018-01-09 08:00:00 -1.5 10 Norte 19 Nordeste 0 895.9 0.8 59
2018-01-09 07:00:00 -2.9 4 Norte 10 Norte 0 895.8 1.2 66
2018-01-09 06:00:00 -1.8 5 Norte 15 Norte 0 895.5 1 63
2018-01-09 05:00:00 -2.9 0 Calma 6 Nordeste 0 895.1 0.6 67
2018-01-09 04:00:00 -2.9 0 Calma 5 Nordeste 0 894.6 -0.1 67
2018-01-09 03:00:00 -2.4 3 Norte 12 Norte 0 894.5 -0.2 66
2018-01-09 02:00:00 -2 3 Norte 9 Norte 0 894.5 0.1 66
2018-01-09 01:00:00 -1.8 4 Nordeste 8 Nordeste 0 894.7 0.5 67
2018-01-09 00:00:00 -2 3 Norte 9 Norte 0 894.7 0.6 73
2018-01-08 23:00:00 -1.3 4 Nordeste 9 Noroeste 0 894.4 0.5 74
2018-01-08 22:00:00 -1.2 2 Nordeste 12 Norte 0 894.2 0.5 82
2018-01-08 21:00:00 -0.1 6 Norte 13 Nordeste 0 894.1 1.1 78
2018-01-08 20:00:00 0.2 4 Norte 14 Norte 0 893.9 1.1 89
2018-01-08 19:00:00 1.3 8 Norte 13 Norte 0 893.7 1.5 80
2018-01-08 18:00:00 2.5 3 Nordeste 6 Norte 0 893 1 85
2018-01-08 17:00:00 4.8 6 Oeste 14 Sudoeste 0 892.8 0.8 75
2018-01-08 16:00:00 7.4 5 Sur 19 Sudoeste 0 892.2 -0.6 64
2018-01-08 15:00:00 8.9 8 Sur 14 Sur 0 892 -1.4 58
2018-01-08 14:00:00 8 7 Sur 19 Sudoeste 0 892 -1 63
2018-01-08 13:00:00 7 10 Sur 20 Sur 0 892.8 0 64
2018-01-08 12:00:00 5.5 5 Sudeste 9 Sur 0 893.4 0.7 67
2018-01-08 11:00:00 3.2 3 Este 11 Nordeste 0 893 0.8 69
2018-01-08 10:00:00 1.3 6 Nordeste 14 Nordeste 0 892.8 1.1 74
2018-01-08 09:00:00 -0.8 6 Norte 15 Nordeste 0 892.7 0.7 81
2018-01-08 08:00:00 -1.6 3 Norte 7 Sur 0 892.2 0.8 87
2018-01-08 07:00:00 -0.1 7 Norte 16 Norte 0 891.7 1 83
2018-01-08 06:00:00 0 9 Nordeste 17 Norte 0 892 2 87
2018-01-08 05:00:00 -0.1 3 Nordeste 17 Norte 0 891.4 1.5 91
2018-01-08 04:00:00 1 12 Norte 17 Norte 0 890.7 0.7 88
2018-01-08 03:00:00 0.5 3 Norte 11 Norte 0 890 -0.3 92
2018-01-08 02:00:00 1.1 6 Norte 10 Nordeste 0 889.9 0.1 92
2018-01-08 01:00:00 0.9 0 Calma 7 Norte 0 890 0.4 90
2018-01-08 00:00:00 1 4 Nordeste 7 Norte 0 890.3 0.9 91
2018-01-07 23:00:00 1.5 5 Norte 13 Nordeste 0 889.8 0.9 87
2018-01-07 22:00:00 1.7 8 Norte 15 Norte 0 889.6 1.3 87
2018-01-07 21:00:00 1.6 3 Norte 15 Norte 0 889.4 1.8 88
2018-01-07 20:00:00 2.1 6 Norte 14 Norte 0 888.9 1.7 85
2018-01-07 19:00:00 2.6 5 Norte 17 Nordeste 0 888.3 1.9 85
2018-01-07 18:00:00 3 12 Nordeste 17 Nordeste 0 887.6 1.6 86
2018-01-07 17:00:00 4.4 4 Oeste 21 Sur 0 887.2 1 73
2018-01-07 16:00:00 4.5 13 Sur 27 Sur 0 886.4 0.6 73
2018-01-07 15:00:00 4.3 14 Este 28 Sudeste 0 886 1 76
2018-01-07 14:00:00 3.7 12 Sudeste 25 Sur 0.4 886.2 2.2 82
2018-01-07 13:00:00 3.9 17 Sur 31 Sudeste 0.4 885.8 2.5 85
2018-01-07 12:00:00 4.9 10 Sudeste 26 Sur 0 885 2.8 82
2018-01-07 11:00:00 5.5 7 Sudeste 32 Sudeste 0 884 2.3 75
2018-01-07 10:00:00 5.3 12 Sudeste 45 Sudeste 0 883.3 1.8 74
2018-01-07 09:00:00 5.5 15 Este 55 Este 0 882.2 0.5 70
2018-01-07 08:00:00 4.7 18 Sudeste 42 Sur 0.4 881.7 0.7 78
2018-01-07 07:00:00 3 4 Sudeste 25 Norte 0.2 881.5 0.5 85
2018-01-07 06:00:00 1.7 4 Sur 32 Sudeste 6 881.7 1.2 89
2018-01-07 05:00:00 4.4 5 Sudeste 34 Sur 1.6 881 -0.1 85
2018-01-07 04:00:00 5.1 11 Este 28 Nordeste 0.4 881 -0.9 80
2018-01-07 03:00:00 4.8 5 Este 16 Nordeste 0 880.5 -0.4 81
2018-01-07 02:00:00 3.3 6 Sur -- -- 1.6 881.1 1 86
2018-01-07 01:00:00 1.7 9 Este 26 Sudeste 9.8 881.9 1.3 90
2018-01-07 00:00:00 2.7 3 Oeste 10 Sudoeste 1 880.9 -0.3 94
2018-01-06 23:00:00 2.7 2 Sudoeste 8 Oeste 0 880.1 -1.1 93
2018-01-06 22:00:00 3.2 2 Sur 13 Sudoeste 0 880.6 -0.7 93
2018-01-06 21:00:00 4.3 3 Norte 13 Noroeste 0.2 881.2 -0.7 89
2018-01-06 20:00:00 4.9 7 Oeste 14 Noroeste 0 881.2 -1.2 83
2018-01-06 19:00:00 4.7 2 Noroeste 33 Nordeste 0 881.3 -1.3 87
2018-01-06 18:00:00 4.8 10 Este 24 Nordeste 1 881.9 -0.2 86
2018-01-06 17:00:00 5.2 11 Nordeste -- -- 1.6 882.4 -0.3 84
2018-01-06 16:00:00 5.9 -- -- -- -- 0.2 882.6 -0.9 82
2018-01-06 15:00:00 6.3 5 Este 32 Sur 0.2 882.1 -2 82
2018-01-06 14:00:00 6.7 7 Sur 30 Sur 0 882.7 -1.6 79
2018-01-06 13:00:00 6.8 6 Sudeste 27 Sur 0 883.5 -0.5 81
2018-01-06 12:00:00 6.4 16 Sudeste 30 Sudeste 0 884.1 0.3 80
2018-01-06 11:00:00 6 12 Sudeste 27 Sudeste 0.2 884.3 0.7 82
2018-01-06 10:00:00 5.4 9 Sudeste 22 Este 2 884 0.3 86
2018-01-06 09:00:00 4.9 7 Sur 28 Sudeste 2.4 883.8 0 90
2018-01-06 08:00:00 4.9 9 Sudeste 23 Sudeste 2 883.6 -0.8 88
2018-01-06 07:00:00 4.4 4 Sur 25 Nordeste 2.2 883.7 -1.7 90
2018-01-06 06:00:00 4.4 8 Este 17 Nordeste 1.2 883.8 -2 88
2018-01-06 05:00:00 4 8 Nordeste 26 Nordeste 2.2 884.4 -2.1 89
2018-01-06 04:00:00 4.4 12 Nordeste 26 Nordeste 2 885.4 -1.8 88
2018-01-06 03:00:00 5.2 8 Este 24 Sudeste 2 885.8 -2.3 88
2018-01-06 02:00:00 5.7 9 Sudeste 21 Sudeste 2 886.5 -1.8 90
2018-01-06 01:00:00 5.8 6 Sudeste 19 Este 1.4 887.2 -1.5 90
2018-01-06 00:00:00 5.6 5 Sur 14 Sur 2 888.1 -1.2 93
2018-01-05 23:00:00 6 6 Sur 20 Nordeste 0.4 888.3 -1.2 89
2018-01-05 22:00:00 6.2 5 Nordeste 11 Nordeste 0 888.7 -1.3 87
2018-01-05 21:00:00 5.9 4 Noroeste 9 Oeste 0.2 889.3 -0.5 90
2018-01-05 20:00:00 6.1 4 Norte 17 Norte 0.2 889.5 -1 89
2018-01-05 19:00:00 5.9 9 Nordeste 18 Norte 0.4 890 -1.2 91
2018-01-05 18:00:00 6.2 13 Norte 19 Norte 0.2 889.8 -1.6 88
2018-01-05 17:00:00 6.4 4 Norte 12 Norte 0.2 890.5 -1.8 88
2018-01-05 16:00:00 6.5 4 Norte 16 Norte 0.2 891.2 -2 87
2018-01-05 15:00:00 6.6 13 Nordeste 18 Nordeste 0.4 891.4 -2.9 88
2018-01-05 14:00:00 8.2 5 Sur 14 Este 0 892.3 -2.7 71
2018-01-05 13:00:00 8 8 Sudeste 19 Sur 0 893.2 -2 71
2018-01-05 12:00:00 7.9 11 Sur 18 Sur 0 894.3 -0.9 75
2018-01-05 11:00:00 7.4 4 Sudeste 12 Sudoeste 0 895 0 78
2018-01-05 10:00:00 7.1 3 Sudoeste 9 Sur 0 895.2 0.1 79
2018-01-05 09:00:00 6.8 2 Norte 10 Sur 0 895.2 -0.3 79
2018-01-05 08:00:00 7.4 2 Oeste 11 Sudoeste 0 895 -1.1 75
2018-01-05 07:00:00 7.6 5 Norte 15 Nordeste 0 895.1 -1.9 73
2018-01-05 06:00:00 7.4 8 Nordeste 13 Norte 0 895.5 -2.5 74
2018-01-05 05:00:00 7.3 4 Noroeste 16 Nordeste 0 896.1 -2.8 75
2018-01-05 04:00:00 7.5 5 Norte 13 Norte 0 897 -3 73
2018-01-05 03:00:00 8 6 Norte 11 Norte 0 898 -2.8 70
2018-01-05 02:00:00 8.6 6 Norte 12 Norte 0 898.9 -2.5 71
2018-01-05 01:00:00 8.7 3 Norte 8 Noroeste 0 900 -1.8 72
2018-01-05 00:00:00 9.1 4 Noroeste 11 Nordeste 0 900.8 -1.8 70
2018-01-04 23:00:00 9 4 Noroeste 13 Norte 0 901.4 -1.1 70
2018-01-04 22:00:00 9.2 5 Norte 14 Norte 0 901.8 -0.3 68
2018-01-04 21:00:00 9 4 Norte 22 Oeste 0 902.6 0.4 71
2018-01-04 20:00:00 8.9 5 Norte 14 Norte 0 902.5 0.2 72
2018-01-04 19:00:00 8.6 11 Norte 17 Norte 0 902.1 -0.4 73
2018-01-04 18:00:00 10.2 4 Norte 15 Noroeste 0 902.2 -0.7 66
2018-01-04 17:00:00 11.3 4 Oeste 12 Sudoeste 0 902.3 -1.2 65
2018-01-04 16:00:00 11.1 7 Sudoeste 27 Sur 0 902.5 -1.7 65
2018-01-04 15:00:00 12.9 12 Sudoeste 26 Sudoeste 0 902.9 -1.9 59
2018-01-04 14:00:00 13.2 12 Sudoeste 28 Sudoeste 0 903.5 -1.7 66
2018-01-04 13:00:00 13.2 12 Sudoeste 26 Sudoeste 0 904.2 -1 66
2018-01-04 12:00:00 12.9 11 Oeste 24 Sudoeste 0 904.8 -0.4 66
2018-01-04 11:00:00 12.1 12 Sudoeste 23 Sudoeste 0 905.2 0 72
2018-01-04 10:00:00 10.1 8 Sudoeste 20 Oeste 0 905.2 -0.4 82
2018-01-04 09:00:00 9.1 8 Oeste 18 Sudoeste 0 905.2 -0.4 89
2018-01-04 08:00:00 9.2 8 Norte 20 Noroeste 0 905.2 -0.7 85
2018-01-04 07:00:00 10.2 8 Oeste 17 Oeste 0 905.6 -0.8 83
2018-01-04 06:00:00 11 4 Sudoeste 19 Noroeste 0 905.6 -0.9 75
2018-01-04 05:00:00 11.7 6 Oeste 20 Noroeste 0 905.9 -0.9 64
2018-01-04 04:00:00 11.9 6 Noroeste 28 Oeste 0 906.4 -0.6 65
2018-01-04 03:00:00 12.5 13 Noroeste 31 Oeste 0 906.5 -0.7 59
2018-01-04 02:00:00 12.3 10 Noroeste 24 Oeste 0 906.8 -0.6 65
2018-01-04 01:00:00 12.6 12 Oeste 41 Noroeste 0 907 -0.7 65
2018-01-04 00:00:00 12.9 12 Noroeste 28 Norte 0 907.2 -0.4 62
2018-01-03 23:00:00 13.1 14 Noroeste 39 Noroeste 0 907.4 -0.1 62
2018-01-03 22:00:00 13.4 12 Noroeste 29 Norte 0 907.7 0.1 60
2018-01-03 21:00:00 13.1 13 Noroeste 42 Noroeste 0 907.6 0 66
2018-01-03 20:00:00 11.6 8 Noroeste 25 Oeste 0 907.5 -0.3 75
2018-01-03 19:00:00 10.4 7 Oeste 20 Sudoeste 0 907.6 -0.3 85
2018-01-03 18:00:00 10.5 9 Oeste 17 Oeste 0 907.6 -0.4 79
2018-01-03 17:00:00 12 4 Norte 27 Noroeste 0 907.8 -0.9 71
2018-01-03 16:00:00 13.9 8 Noroeste 31 Oeste 0 907.9 -1.4 54
2018-01-03 15:00:00 14 9 Noroeste 37 Norte 0 908 -1.8 41
2018-01-03 14:00:00 14.1 10 Oeste 29 Oeste 0 908.7 -1.4 47
2018-01-03 13:00:00 13.5 10 Noroeste 28 Noroeste 0 909.3 -0.2 51
2018-01-03 12:00:00 13.3 7 Oeste 22 Noroeste 0 909.8 0.5 63
2018-01-03 11:00:00 12.9 9 Oeste 19 Noroeste 0 910.1 1 72
2018-01-03 10:00:00 10.7 8 Noroeste 15 Noroeste 0 909.5 0.6 86
2018-01-03 09:00:00 8.9 3 Norte 6 Nordeste 0.4 909.3 0.5 92
2018-01-03 08:00:00 9.2 3 Oeste 12 Noroeste 0.2 909.1 0.5 91
2018-01-03 07:00:00 9.1 6 Noroeste 15 Noroeste 0.4 908.9 -0.2 91
2018-01-03 06:00:00 9.1 6 Oeste 24 Noroeste 0.2 908.8 -0.1 89
2018-01-03 05:00:00 9.6 17 Oeste 26 Oeste 0 908.6 0.1 84
2018-01-03 04:00:00 9.1 12 Noroeste 21 Oeste 0.2 909.1 0.4 89
2018-01-03 03:00:00 9.3 9 Oeste 22 Noroeste 0 908.9 -0.1 88
2018-01-03 02:00:00 9.8 12 Oeste 23 Oeste 0 908.5 -0.4 85
2018-01-03 01:00:00 9.3 10 Noroeste 22 Noroeste 0 908.7 -0.3 88
2018-01-03 00:00:00 9 10 Noroeste 24 Oeste 0 909 0.6 91
2018-01-02 23:00:00 8.8 13 Oeste 26 Oeste 0.2 908.9 0.7 91
2018-01-02 22:00:00 9 15 Oeste 24 Oeste 0.2 909 1.5 91
2018-01-02 21:00:00 9.3 17 Oeste 28 Oeste 0 908.4 1.2 91
2018-01-02 20:00:00 9.3 15 Oeste 27 Oeste 0 908.2 1 90
2018-01-02 19:00:00 9.2 17 Oeste 32 Noroeste 0 907.5 0.3 88
2018-01-02 18:00:00 8.4 14 Noroeste 27 Oeste 0 907.2 0.2 90
2018-01-02 17:00:00 8.3 17 Oeste 30 Oeste 0 907.2 -0.1 91
2018-01-02 16:00:00 8.4 12 Oeste 24 Oeste 0.2 907.2 -0.5 91
2018-01-02 15:00:00 8 12 Oeste 29 Oeste 1 907 -1.1 91
2018-01-02 14:00:00 7.9 12 Oeste 25 Oeste 1 907.3 -0.8 90
2018-01-02 13:00:00 7.6 15 Oeste 27 Oeste 1.4 907.7 -0.2 90
2018-01-02 12:00:00 6.5 8 Noroeste 16 Noroeste 1 908.1 0.6 92
2018-01-02 11:00:00 5.5 4 Nordeste 14 Sudoeste 1.4 908.1 1 92
2018-01-02 10:00:00 5.3 7 Oeste 12 Oeste 0.2 907.9 1.1 92
2018-01-02 09:00:00 4.7 5 Noroeste 10 Noroeste 0.4 907.5 0.6 90
2018-01-02 08:00:00 5.1 7 Oeste 14 Oeste 0 907.1 0.3 85
2018-01-02 07:00:00 4.9 6 Noroeste 13 Oeste 0 906.8 -0.2 83
2018-01-02 06:00:00 4.5 8 Oeste 19 Oeste 0 906.9 0.1 78
2018-01-02 05:00:00 4.3 10 Oeste 18 Noroeste 0 906.8 -0.7 76
2018-01-02 04:00:00 3.8 6 Norte 19 Norte 0 907 -0.2 75
2018-01-02 03:00:00 4.7 11 Oeste 23 Noroeste 0 906.8 -0.7 67
2018-01-02 02:00:00 6.1 17 Noroeste 46 Oeste 0 907.5 0.8 55
2018-01-02 01:00:00 7.4 15 Noroeste 38 Norte 0 907.2 0.4 38
2018-01-02 00:00:00 4.5 11 Oeste 25 Oeste 0 907.5 1.9 70
2018-01-01 23:00:00 5.9 13 Noroeste 42 Noroeste 0 906.7 1 62
2018-01-01 22:00:00 6 13 Noroeste 31 Noroeste 0.4 906.8 1.5 70
2018-01-01 21:00:00 6.1 10 Oeste 61 Norte 0 905.6 0.6 77
2018-01-01 20:00:00 2.3 9 Noroeste 17 Oeste 2 905.7 0.7 91
2018-01-01 19:00:00 1.6 8 Norte 15 Noroeste 2.4 905.3 0.8 94
2018-01-01 18:00:00 1.4 3 Oeste 10 Nordeste 3.2 905 -0.3 91
2018-01-01 17:00:00 2.3 8 Norte 14 Norte 3 905 -1.1 87
2018-01-01 16:00:00 4.9 2 Este 13 Nordeste 0 904.5 -2.7 67
2018-01-01 15:00:00 4.9 6 Nordeste 11 Norte 0 905.3 -2.5 65
2018-01-01 14:00:00 5.2 4 Nordeste 9 Noroeste 0 906.1 -2.2 59
2018-01-01 13:00:00 5.5 5 Oeste 13 Oeste 0 907.2 -1.3 58
2018-01-01 12:00:00 6.1 4 Sudoeste 13 Norte 0 907.8 -0.2 57
2018-01-01 11:00:00 5.4 7 Oeste 16 Sudoeste 0 908.3 0.7 62
2018-01-01 10:00:00 3.4 4 Nordeste 15 Nordeste 0 908.5 1.1 73
2018-01-01 09:00:00 1.3 4 Noroeste 10 Norte 0 908 0.6 76
2018-01-01 08:00:00 2 6 Noroeste 19 Oeste 0 907.6 0.7 72
2018-01-01 07:00:00 3.1 9 Noroeste 18 Noroeste 0 907.4 0.9 68
2018-01-01 06:00:00 2.7 7 Oeste 19 Noroeste 0 907.4 1.2 73
2018-01-01 05:00:00 3 9 Oeste 23 Oeste 0 906.9 1.1 69
2018-01-01 04:00:00 3.6 9 Oeste 30 Norte 0 906.5 1.2 64
2018-01-01 03:00:00 3.6 8 Noroeste 33 Oeste 0 906.2 1.4 66
2018-01-01 02:00:00 3.2 9 Noroeste 35 Noroeste 0 905.8 1.9 71
2018-01-01 01:00:00 3.1 10 Noroeste 23 Oeste 0 905.3 1.8 71
2018-01-01 00:00:00 2.3 9 Oeste 22 Sudoeste 0 904.8 1.1 81
2017-12-31 23:00:00 3.1 13 Oeste 29 Oeste 0 903.9 2 71
2017-12-31 22:00:00 3.4 9 Noroeste 26 Norte 0.2 903.5 2.5 70
2017-12-31 21:00:00 3 9 Oeste 28 Noroeste 1.4 903.7 3.4 84
2017-12-31 20:00:00 4.1 11 Noroeste 34 Oeste 3 901.9 1.4 81
2017-12-31 19:00:00 5.4 4 Este 17 Norte 1.4 901 -0.2 87
2017-12-31 18:00:00 6.2 9 Norte 14 Norte 0 900.3 -0.8 79
2017-12-31 17:00:00 7.6 3 Sudoeste 6 Sur 0 900.5 -1.2 70
2017-12-31 16:00:00 8.5 4 Sudoeste 18 Sudoeste 0 901.2 -1.6 65
2017-12-31 15:00:00 9.2 5 Sur 10 Oeste 0 901.1 -1.4 65
2017-12-31 14:00:00 8.4 6 Sudoeste 13 Noroeste 0 901.7 -1.7 68
2017-12-31 13:00:00 8.2 8 Oeste 18 Sudoeste 0 902.8 -0.5 69
2017-12-31 12:00:00 7.9 2 Sur 12 Nordeste 0 902.5 -0.8 63
2017-12-31 11:00:00 6.4 3 Nordeste 13 Norte 0 903.4 0.3 69
2017-12-31 10:00:00 4.9 3 Norte 11 Norte 0 903.3 0 70
2017-12-31 09:00:00 5 7 Norte 15 Norte 0 903.3 -0.8 63
2017-12-31 08:00:00 5.2 9 Nordeste 22 Nordeste 0 903.1 -1.3 66
2017-12-31 07:00:00 5.4 17 Nordeste 23 Nordeste 0 903.3 -2 65
2017-12-31 06:00:00 5.1 4 Norte 16 Norte 0 904.1 -1.8 68
2017-12-31 05:00:00 5.3 8 Nordeste 14 Norte 0 904.4 -2.1 61
2017-12-31 04:00:00 4.5 10 Norte 23 Norte 0 905.3 -1 64
2017-12-31 03:00:00 4 6 Norte 18 Norte 0 905.9 -1 69
2017-12-31 02:00:00 3.6 6 Norte 20 Nordeste 0 906.5 -0.4 74
2017-12-31 01:00:00 4.9 10 Norte 21 Norte 0 906.3 -0.7 70